CMA CGM Rhone — 9HA3778 — position and weather

sailwx.info

Track history (hours):
 
Tides and Currents Weather Stations Pressure Air Temp Water Temp Dewpoint Dewpoint Depression Visibility Wind Speed Wind Dir Waves Ship Positions

CMA CGM Rhone

Last reported at 2017-Oct-10 14:36 UTC. Time now 2017-Oct-20 17:54 UTC.
Position N 36°20' E 015°00'.
Warning: this ship's position is 10 days out of date.

Length 300 m; draft 11.1 m.

Type: Ship (hazmat cat A). MMSI: 229989000.

Date/timePositionNaut miles runAvg speedWind from/ knotsBaromVisibWave heightAir tempDewpointWater temp
2017-Oct-10 14:36N 36°20' E 015°00'1017.3
2017-Oct-10 14:00N 36°23' E 014°48'916.9
2017-Oct-10 13:30N 36°26' E 014°38'917.2
2017-Oct-10 13:00N 36°28' E 014°28'917.0
2017-Oct-10 12:30N 36°31' E 014°18'917.1
2017-Oct-10 12:00N 36°33' E 014°07'917.1
2017-Oct-10 11:30N 36°36' E 013°57'917.1
2017-Oct-10 11:00N 36°39' E 013°47'63517.0
2017-Oct-08 21:33N 36°59' E 000°34'117.3
2017-Oct-08 21:30N 36°59' E 000°33'917.3
2017-Oct-08 21:00N 36°57' E 000°23'917.4
2017-Oct-08 20:30N 36°54' E 000°12'917.4
2017-Oct-08 19:59N 36°52' E 000°01'817.4
2017-Oct-08 19:30N 36°50' W 000°09'1317.3
2017-Oct-08 18:47N 36°46' W 000°24'517.5
2017-Oct-08 18:30N 36°45' W 000°30'917.4
2017-Oct-08 18:00N 36°42' W 000°40'917.2
2017-Oct-08 17:30N 36°40' W 000°50'26817.3
2017-Oct-08 02:01N 35°53' W 006°18'217.3
2017-Oct-08 01:55N 35°53' W 006°20'717.5
2017-Oct-08 01:30N 35°53' W 006°29'917.6
2017-Oct-08 01:00N 35°53' W 006°40'917.5
2017-Oct-08 00:30N 35°53' W 006°51'917.2
2017-Oct-07 23:59N 35°53' W 007°02'817.2
2017-Oct-07 23:30N 35°54' W 007°12'917.4
2017-Oct-07 23:00N 35°53' W 007°23'917.4
2017-Oct-07 22:30N 35°53' W 007°33'917.5
2017-Oct-07 22:00N 35°53' W 007°44'917.5
2017-Oct-07 21:30N 35°53' W 007°55'917.5
2017-Oct-07 21:00N 35°54' W 008°06'917.5
2017-Oct-07 20:30N 35°54' W 008°17'917.3
2017-Oct-07 20:01N 35°53' W 008°27'1217.4
2017-Oct-07 19:20N 35°54' W 008°42'617.4
2017-Oct-07 19:00N 35°54' W 008°49'917.3
2017-Oct-07 18:30N 35°53' W 008°59'917.6
2017-Oct-07 18:00N 35°53' W 009°10'917.6
2017-Oct-07 17:30N 35°54' W 009°21'917.4
2017-Oct-07 17:00N 35°53' W 009°32'917.5
2017-Oct-07 16:30N 35°53' W 009°43'917.3
2017-Oct-07 16:00N 35°53' W 009°53'917.2
2017-Oct-07 15:30N 35°53' W 010°04'917.2
2017-Oct-07 15:00N 35°53' W 010°15'917.5
2017-Oct-07 14:30N 35°52' W 010°25'917.2
2017-Oct-07 14:00N 35°52' W 010°36'1017.5
2017-Oct-07 13:26N 35°51' W 010°48'817.5
2017-Oct-07 13:00N 35°51' W 010°58'917.4
2017-Oct-07 12:30N 35°51' W 011°08'4217.5
2017-Oct-07 10:05N 35°48' W 012°00'117.4
2017-Oct-07 10:00N 35°48' W 012°02'917.5
2017-Oct-07 09:30N 35°48' W 012°13'1117.5
2017-Oct-07 08:52N 35°47' W 012°27'617.6
2017-Oct-07 08:30N 35°47' W 012°34'917.5
2017-Oct-07 08:00N 35°46' W 012°45'1117.5
2017-Oct-07 07:23N 35°46' W 012°58'717.6
2017-Oct-07 07:00N 35°46' W 013°07'917.6
2017-Oct-07 06:30N 35°45' W 013°18'1417.6
2017-Oct-07 05:44N 35°44' W 013°34'417.3
2017-Oct-07 05:30N 35°44' W 013°39'917.4
2017-Oct-07 05:00N 35°44' W 013°50'917.4
2017-Oct-07 04:30N 35°43' W 014°00'917.4
2017-Oct-07 03:59N 35°43' W 014°12'917.4
2017-Oct-07 03:28N 35°42' W 014°23'1117.5
2017-Oct-07 02:51N 35°42' W 014°36'717.6
2017-Oct-07 02:29N 35°41' W 014°44'4117.4
2017-Oct-07 00:06N 35°39' W 015°35'217.3
2017-Oct-07 00:00N 35°39' W 015°37'32517.5
2017-Oct-06 05:26N 35°22' W 022°16'817.5
2017-Oct-06 04:58N 35°21' W 022°26'1017.8
2017-Oct-06 04:23N 35°21' W 022°38'917.5
2017-Oct-06 03:53N 35°20' W 022°49'717.5
2017-Oct-06 03:30N 35°20' W 022°57'917.5
2017-Oct-06 02:59N 35°20' W 023°08'817.6
2017-Oct-06 02:30N 35°19' W 023°19'917.6
2017-Oct-06 02:00N 35°19' W 023°29'917.5
2017-Oct-06 01:30N 35°18' W 023°40'917.9
2017-Oct-06 01:00N 35°18' W 023°51'917.6
2017-Oct-06 00:30N 35°17' W 024°02'917.8
2017-Oct-06 00:00N 35°17' W 024°13'917.6
2017-Oct-05 23:30N 35°16' W 024°23'917.7
2017-Oct-05 23:00N 35°16' W 024°34'917.5
2017-Oct-05 22:30N 35°15' W 024°45'1017.7
2017-Oct-05 21:55N 35°15' W 024°58'2717.6
2017-Oct-05 20:24N 35°13' W 025°30'  
Track history (hours):
 
Tides and Currents Weather Stations Pressure Air Temp Water Temp Dewpoint Dewpoint Depression Visibility Wind Speed Wind Dir Waves Ship Positions

CMA CGM Rhone

Last reported at 2017-Oct-10 14:36 UTC. Time now 2017-Oct-20 17:54 UTC.
Position N 36°20' E 015°00'.
Warning: this ship's position is 10 days out of date.

Length 300 m; draft 11.1 m.

Type: Ship (hazmat cat A). MMSI: 229989000.

Date/timePositionNaut miles runAvg speedWind from/ knotsBaromVisibWave heightAir tempDewpointWater temp
2017-Oct-10 14:36N 36°20' E 015°00'1017.3
2017-Oct-10 14:00N 36°23' E 014°48'916.9
2017-Oct-10 13:30N 36°26' E 014°38'917.2
2017-Oct-10 13:00N 36°28' E 014°28'917.0
2017-Oct-10 12:30N 36°31' E 014°18'917.1
2017-Oct-10 12:00N 36°33' E 014°07'917.1
2017-Oct-10 11:30N 36°36' E 013°57'917.1
2017-Oct-10 11:00N 36°39' E 013°47'63517.0
2017-Oct-08 21:33N 36°59' E 000°34'117.3
2017-Oct-08 21:30N 36°59' E 000°33'917.3
2017-Oct-08 21:00N 36°57' E 000°23'917.4
2017-Oct-08 20:30N 36°54' E 000°12'917.4
2017-Oct-08 19:59N 36°52' E 000°01'817.4
2017-Oct-08 19:30N 36°50' W 000°09'1317.3
2017-Oct-08 18:47N 36°46' W 000°24'517.5
2017-Oct-08 18:30N 36°45' W 000°30'917.4
2017-Oct-08 18:00N 36°42' W 000°40'917.2
2017-Oct-08 17:30N 36°40' W 000°50'26817.3
2017-Oct-08 02:01N 35°53' W 006°18'217.3
2017-Oct-08 01:55N 35°53' W 006°20'717.5
2017-Oct-08 01:30N 35°53' W 006°29'917.6
2017-Oct-08 01:00N 35°53' W 006°40'917.5
2017-Oct-08 00:30N 35°53' W 006°51'917.2
2017-Oct-07 23:59N 35°53' W 007°02'817.2
2017-Oct-07 23:30N 35°54' W 007°12'917.4
2017-Oct-07 23:00N 35°53' W 007°23'917.4
2017-Oct-07 22:30N 35°53' W 007°33'917.5
2017-Oct-07 22:00N 35°53' W 007°44'917.5
2017-Oct-07 21:30N 35°53' W 007°55'917.5
2017-Oct-07 21:00N 35°54' W 008°06'917.5
2017-Oct-07 20:30N 35°54' W 008°17'917.3
2017-Oct-07 20:01N 35°53' W 008°27'1217.4
2017-Oct-07 19:20N 35°54' W 008°42'617.4
2017-Oct-07 19:00N 35°54' W 008°49'917.3
2017-Oct-07 18:30N 35°53' W 008°59'917.6
2017-Oct-07 18:00N 35°53' W 009°10'917.6
2017-Oct-07 17:30N 35°54' W 009°21'917.4
2017-Oct-07 17:00N 35°53' W 009°32'917.5
2017-Oct-07 16:30N 35°53' W 009°43'917.3
2017-Oct-07 16:00N 35°53' W 009°53'917.2
2017-Oct-07 15:30N 35°53' W 010°04'917.2
2017-Oct-07 15:00N 35°53' W 010°15'917.5
2017-Oct-07 14:30N 35°52' W 010°25'917.2
2017-Oct-07 14:00N 35°52' W 010°36'1017.5
2017-Oct-07 13:26N 35°51' W 010°48'817.5
2017-Oct-07 13:00N 35°51' W 010°58'917.4
2017-Oct-07 12:30N 35°51' W 011°08'4217.5
2017-Oct-07 10:05N 35°48' W 012°00'117.4
2017-Oct-07 10:00N 35°48' W 012°02'917.5
2017-Oct-07 09:30N 35°48' W 012°13'1117.5
2017-Oct-07 08:52N 35°47' W 012°27'617.6
2017-Oct-07 08:30N 35°47' W 012°34'917.5
2017-Oct-07 08:00N 35°46' W 012°45'1117.5
2017-Oct-07 07:23N 35°46' W 012°58'717.6
2017-Oct-07 07:00N 35°46' W 013°07'917.6
2017-Oct-07 06:30N 35°45' W 013°18'1417.6
2017-Oct-07 05:44N 35°44' W 013°34'417.3
2017-Oct-07 05:30N 35°44' W 013°39'917.4
2017-Oct-07 05:00N 35°44' W 013°50'917.4
2017-Oct-07 04:30N 35°43' W 014°00'917.4
2017-Oct-07 03:59N 35°43' W 014°12'917.4
2017-Oct-07 03:28N 35°42' W 014°23'1117.5
2017-Oct-07 02:51N 35°42' W 014°36'717.6
2017-Oct-07 02:29N 35°41' W 014°44'4117.4
2017-Oct-07 00:06N 35°39' W 015°35'217.3
2017-Oct-07 00:00N 35°39' W 015°37'32517.5
2017-Oct-06 05:26N 35°22' W 022°16'817.5
2017-Oct-06 04:58N 35°21' W 022°26'1017.8
2017-Oct-06 04:23N 35°21' W 022°38'917.5
2017-Oct-06 03:53N 35°20' W 022°49'717.5
2017-Oct-06 03:30N 35°20' W 022°57'917.5
2017-Oct-06 02:59N 35°20' W 023°08'817.6
2017-Oct-06 02:30N 35°19' W 023°19'917.6
2017-Oct-06 02:00N 35°19' W 023°29'917.5
2017-Oct-06 01:30N 35°18' W 023°40'917.9
2017-Oct-06 01:00N 35°18' W 023°51'917.6
2017-Oct-06 00:30N 35°17' W 024°02'917.8
2017-Oct-06 00:00N 35°17' W 024°13'917.6
2017-Oct-05 23:30N 35°16' W 024°23'917.7
2017-Oct-05 23:00N 35°16' W 024°34'917.5
2017-Oct-05 22:30N 35°15' W 024°45'1017.7
2017-Oct-05 21:55N 35°15' W 024°58'2717.6
2017-Oct-05 20:24N 35°13' W 025°30'  

Dump ship's entire track history